Time;durP1;ratioP1;P1;durP2;ratioP2;P2;SDS_P1;SDS_P2;PMS_P1;PMS_P2;Temp;Humidity;BMP_temperature;BMP_pressure;BME280_temperature;BME280_humidity;BME280_pressure;Samples;Min_cycle;Max_cycle;Signal;HPM_P1;HPM_P2
2023/09/06 00:00:52;;;;;;;19.65;14.20;;;;;;;18.98;100.00;102038.28;4851314;29;20491;-78
2023/09/06 00:03:20;;;;;;;22.17;19.88;;;;;;;18.99;100.00;102041.84;4859502;29;20060;-77
2023/09/06 00:05:47;;;;;;;23.45;18.52;;;;;;;18.99;100.00;102040.03;4836763;29;20061;-78
2023/09/06 00:08:16;;;;;;;20.38;18.17;;;;;;;18.98;100.00;102034.72;4824414;29;20104;-77
2023/09/06 00:10:45;;;;;;;21.33;19.02;;;;;;;18.96;100.00;102042.75;4825392;29;20056;-78
2023/09/06 00:13:13;;;;;;;20.02;17.92;;;;;;;18.92;100.00;102042.81;4861624;29;20057;-77
2023/09/06 00:15:42;;;;;;;21.63;18.52;;;;;;;18.89;100.00;102038.41;4852625;29;20501;-77
2023/09/06 00:18:10;;;;;;;22.90;20.40;;;;;;;18.86;100.00;102041.97;4876319;29;20053;-77
2023/09/06 00:20:39;;;;;;;22.73;18.33;;;;;;;18.83;100.00;102035.81;4861130;29;20068;-79
2023/09/06 00:23:13;;;;;;;20.77;17.42;;;;;;;18.80;100.00;102034.03;4850032;29;20065;-77
2023/09/06 00:25:40;;;;;;;21.08;18.02;;;;;;;18.77;100.00;102038.50;4823417;29;20065;-78
2023/09/06 00:28:08;;;;;;;23.83;19.00;;;;;;;18.73;100.00;102026.09;4871145;29;20057;-77
2023/09/06 00:30:35;;;;;;;23.40;20.77;;;;;;;18.72;100.00;102027.00;4847591;29;20056;-78
2023/09/06 00:33:05;;;;;;;25.13;20.73;;;;;;;18.70;100.00;102019.88;4846556;29;20056;-77
2023/09/06 00:35:34;;;;;;;26.90;23.08;;;;;;;18.68;100.00;102029.72;4866967;29;20100;-78
2023/09/06 00:38:01;;;;;;;26.40;21.25;;;;;;;18.66;100.00;102031.50;4854587;29;20053;-78
2023/09/06 00:40:29;;;;;;;28.75;22.00;;;;;;;18.63;100.00;102019.97;4856626;29;20045;-79
2023/09/06 00:43:00;;;;;;;26.63;22.15;;;;;;;18.60;100.00;102036.94;4810515;29;20067;-78
2023/09/06 00:45:38;;;;;;;29.13;22.60;;;;;;;18.57;100.00;102028.06;4833302;29;20150;-78
2023/09/06 00:48:08;;;;;;;23.70;21.15;;;;;;;18.55;100.00;102028.09;4859205;29;20053;-78
2023/09/06 00:50:36;;;;;;;25.20;21.23;;;;;;;18.52;100.00;102028.09;4842872;29;20057;-78
2023/09/06 00:53:07;;;;;;;22.13;19.73;;;;;;;18.49;100.00;102034.38;4878036;29;20620;-78
2023/09/06 00:55:37;;;;;;;22.35;19.95;;;;;;;18.45;100.00;102026.41;4870375;29;20033;-79
2023/09/06 00:58:08;;;;;;;22.10;18.58;;;;;;;18.42;100.00;102026.44;4822380;29;20050;-78
2023/09/06 01:00:36;;;;;;;22.98;20.10;;;;;;;18.39;100.00;102037.16;4849966;29;20061;-78
2023/09/06 01:03:05;;;;;;;21.80;18.75;;;;;;;18.37;100.00;102028.28;4851837;29;20046;-78
2023/09/06 01:05:41;;;;;;;24.70;20.08;;;;;;;18.36;100.00;102032.75;4840153;29;20050;-78
2023/09/06 01:08:13;;;;;;;28.63;21.92;;;;;;;18.36;100.00;102031.88;4872294;29;20503;-78
2023/09/06 01:10:40;;;;;;;26.58;20.10;;;;;;;18.37;100.00;102028.28;4848584;29;20049;-79
2023/09/06 01:13:07;;;;;;;21.08;17.35;;;;;;;18.38;100.00;102024.72;4807041;29;20053;-78
2023/09/06 01:15:41;;;;;;;20.90;18.58;;;;;;;18.38;100.00;102025.59;4836018;29;20050;-77
2023/09/06 01:18:11;;;;;;;19.17;16.38;;;;;;;18.38;100.00;102019.38;4830057;29;20515;-77
2023/09/06 01:20:52;;;;;;;21.48;16.90;;;;;;;18.43;100.00;102022.88;4866372;29;20455;-79
2023/09/06 01:23:23;;;;;;;20.85;17.05;;;;;;;18.46;100.00;102022.84;4854374;29;20396;-78
2023/09/06 01:25:53;;;;;;;19.77;17.65;;;;;;;18.50;100.00;102021.91;4858468;29;20050;-78
2023/09/06 01:28:24;;;;;;;18.42;16.42;;;;;;;18.53;100.00;102027.22;4809962;29;20423;-78
2023/09/06 01:30:52;;;;;;;21.00;16.38;;;;;;;18.54;100.00;102031.63;4854039;29;20511;-78
2023/09/06 01:33:19;;;;;;;19.85;14.63;;;;;;;18.53;100.00;102029.88;4824187;29;20057;-78
2023/09/06 01:35:47;;;;;;;18.10;15.10;;;;;;;18.51;100.00;102029.91;4835144;29;20065;-78
2023/09/06 01:38:15;;;;;;;23.10;16.85;;;;;;;18.50;100.00;102032.56;4846011;29;20053;-78
2023/09/06 01:40:43;;;;;;;17.48;15.13;;;;;;;18.49;100.00;102029.03;4832270;29;20627;-78
2023/09/06 01:43:12;;;;;;;16.33;14.63;;;;;;;18.49;100.00;102028.16;4813778;29;20058;-78
2023/09/06 01:45:48;;;;;;;19.38;14.55;;;;;;;18.45;100.00;102035.31;4839109;29;20542;-78
2023/09/06 01:48:15;;;;;;;18.48;14.63;;;;;;;18.43;100.00;102039.78;4831610;29;20502;-77
2023/09/06 01:50:43;;;;;;;19.23;15.73;;;;;;;18.44;100.00;102030.88;4832230;29;20050;-78
2023/09/06 01:53:13;;;;;;;20.80;14.77;;;;;;;18.46;100.00;102028.19;4849251;29;20060;-78
2023/09/06 01:55:42;;;;;;;21.48;15.00;;;;;;;18.48;100.00;102023.72;4851351;29;20411;-78
2023/09/06 01:58:12;;;;;;;22.77;16.23;;;;;;;18.48;100.00;102029.91;4837515;29;20060;-79
2023/09/06 02:00:40;;;;;;;18.77;16.65;;;;;;;18.49;100.00;102034.38;4848988;29;20041;-79
2023/09/06 02:03:09;;;;;;;19.38;15.93;;;;;;;18.50;100.00;102028.13;4858671;29;20049;-77
2023/09/06 02:05:41;;;;;;;17.33;15.43;;;;;;;18.50;100.00;102033.44;4847408;29;20059;-78
2023/09/06 02:08:10;;;;;;;17.08;13.88;;;;;;;18.50;100.00;102040.59;4847513;29;20044;-79
2023/09/06 02:10:37;;;;;;;18.45;14.68;;;;;;;18.46;100.00;102037.06;4847750;29;20064;-79
2023/09/06 02:13:12;;;;;;;17.33;13.73;;;;;;;18.42;100.00;102047.81;4825941;29;20057;-80
2023/09/06 02:15:41;;;;;;;17.38;14.35;;;;;;;18.38;100.00;102043.41;4824883;29;20060;-78
2023/09/06 02:18:10;;;;;;;18.77;14.65;;;;;;;18.35;100.00;102040.75;4861941;29;20057;-78
2023/09/06 02:20:42;;;;;;;21.80;18.95;;;;;;;18.31;100.00;102040.78;4848461;29;20072;-78
2023/09/06 02:23:09;;;;;;;22.27;16.95;;;;;;;18.33;100.00;102042.56;4876935;29;20048;-78
2023/09/06 02:25:38;;;;;;;20.75;14.52;;;;;;;18.33;100.00;102043.44;4863298;29;20581;-78
2023/09/06 02:28:07;;;;;;;19.55;14.85;;;;;;;18.29;100.00;102039.91;4840340;29;20056;-77
2023/09/06 02:30:36;;;;;;;17.88;15.40;;;;;;;18.25;100.00;102038.16;4815216;29;20056;-78
2023/09/06 02:33:04;;;;;;;16.23;13.55;;;;;;;18.22;100.00;102038.22;4863472;29;20052;-78
2023/09/06 02:35:40;;;;;;;19.25;13.38;;;;;;;18.18;100.00;102035.59;4863246;29;20045;-79
2023/09/06 02:38:09;;;;;;;13.80;12.27;;;;;;;18.14;100.00;102042.72;4869635;29;20545;-78
2023/09/06 02:40:40;;;;;;;15.52;12.07;;;;;;;18.10;100.00;102041.00;4857574;29;20056;-78
2023/09/06 02:43:10;;;;;;;19.10;13.10;;;;;;;18.05;100.00;102040.13;4873139;29;20057;-78
2023/09/06 02:45:39;;;;;;;;;;;;;;;18.01;100.00;102046.41;4818594;29;20063;-78
2023/09/06 02:48:15;;;;;;;14.52;13.02;;;;;;;17.97;100.00;102042.00;4879090;29;19931;-78
2023/09/06 02:50:44;;;;;;;14.85;12.43;;;;;;;17.93;100.00;102042.00;4853986;29;20707;-78
2023/09/06 02:53:22;;;;;;;15.77;12.40;;;;;;;17.93;100.00;102047.34;4846284;29;20069;-77
2023/09/06 02:55:54;;;;;;;15.82;13.20;;;;;;;17.91;100.00;102041.13;4861462;29;20060;-78
2023/09/06 02:58:25;;;;;;;17.40;13.65;;;;;;;17.91;100.00;102037.59;4854984;29;20049;-77
2023/09/06 03:00:57;;;;;;;16.30;13.07;;;;;;;17.89;100.00;102047.41;4852015;29;20045;-77
2023/09/06 03:03:26;;;;;;;15.07;13.20;;;;;;;17.87;100.00;102049.19;4812285;29;20049;-77
2023/09/06 03:05:57;;;;;;;16.73;13.48;;;;;;;17.86;100.00;102051.00;4830232;29;20061;-77
2023/09/06 03:08:25;;;;;;;16.73;13.95;;;;;;;17.85;100.00;102040.31;4857890;29;20048;-78
2023/09/06 03:10:53;;;;;;;15.85;12.63;;;;;;;17.83;100.00;102050.97;4849142;29;20060;-78
2023/09/06 03:13:21;;;;;;;18.35;13.30;;;;;;;17.81;100.00;102050.09;4843480;29;20064;-78
2023/09/06 03:15:51;;;;;;;15.38;13.10;;;;;;;17.79;100.00;102050.97;4832029;29;20065;-78
2023/09/06 03:18:22;;;;;;;21.20;13.32;;;;;;;17.75;100.00;102047.47;4804107;29;20062;-78
2023/09/06 03:20:55;;;;;;;15.80;13.80;;;;;;;17.77;100.00;102051.03;4870979;29;20072;-78
2023/09/06 03:23:25;;;;;;;13.98;12.57;;;;;;;17.76;100.00;102053.69;4857942;29;20383;-77
2023/09/06 03:25:57;;;;;;;15.35;12.88;;;;;;;17.73;100.00;102057.25;4875116;29;20053;-77
2023/09/06 03:28:33;;;;;;;15.60;13.88;;;;;;;17.71;100.00;102056.38;4835438;29;20679;-78
2023/09/06 03:31:03;;;;;;;18.48;13.27;;;;;;;17.67;100.00;102055.50;4865779;29;20076;-77
2023/09/06 03:33:31;;;;;;;14.32;12.93;;;;;;;17.66;100.00;102061.75;4805291;29;20427;-78
2023/09/06 03:36:07;;;;;;;15.25;13.65;;;;;;;17.65;100.00;102054.63;4848969;29;20056;-78
2023/09/06 03:38:36;;;;;;;16.65;14.65;;;;;;;17.66;100.00;102055.53;4852261;29;20049;-79
2023/09/06 03:41:07;;;;;;;16.45;14.23;;;;;;;17.66;100.00;102058.22;4868861;29;20418;-79
2023/09/06 03:43:37;;;;;;;20.02;14.60;;;;;;;17.65;100.00;102059.97;4871640;29;20053;-77
2023/09/06 03:46:09;;;;;;;16.52;13.45;;;;;;;17.66;100.00;102063.53;4848928;29;20065;-77
2023/09/06 03:48:36;;;;;;;16.48;14.23;;;;;;;17.66;100.00;102066.22;4831451;29;20050;-78
2023/09/06 03:51:05;;;;;;;15.32;13.30;;;;;;;17.65;100.00;102059.09;4855833;29;20054;-78
2023/09/06 03:53:37;;;;;;;16.77;12.30;;;;;;;17.64;100.00;102065.34;4838108;29;20056;-77
2023/09/06 03:56:05;;;;;;;14.82;12.57;;;;;;;17.64;100.00;102068.00;4847997;29;20063;-78
2023/09/06 03:58:42;;;;;;;17.15;12.10;;;;;;;17.62;100.00;102065.34;4877437;29;20329;-78
2023/09/06 04:01:10;;;;;;;13.07;11.70;;;;;;;17.61;100.00;102062.69;4859033;29;20063;-76
2023/09/06 04:03:40;;;;;;;14.20;12.70;;;;;;;17.58;100.00;102058.25;4827710;29;20056;-77
2023/09/06 04:06:10;;;;;;;15.98;12.05;;;;;;;17.57;100.00;102066.25;4790179;29;20522;-78
2023/09/06 04:08:45;;;;;;;16.15;11.73;;;;;;;17.57;100.00;102068.94;4840616;29;20495;-79
2023/09/06 04:11:12;;;;;;;12.88;11.10;;;;;;;17.56;100.00;102057.41;4855976;29;20048;-78
2023/09/06 04:13:43;;;;;;;13.55;11.23;;;;;;;17.54;100.00;102065.38;4855848;29;20056;-78
2023/09/06 04:16:14;;;;;;;16.75;12.18;;;;;;;17.53;100.00;102071.59;4860835;29;20053;-77
2023/09/06 04:18:43;;;;;;;16.42;11.20;;;;;;;17.52;100.00;102069.84;4852563;29;20046;-78
2023/09/06 04:21:11;;;;;;;13.52;10.00;;;;;;;17.51;100.00;102070.72;4806458;29;20061;-79
2023/09/06 04:23:43;;;;;;;12.70;10.55;;;;;;;17.50;100.00;102074.31;4861747;29;20037;-78
2023/09/06 04:26:16;;;;;;;11.85;10.65;;;;;;;17.47;100.00;102079.66;4845554;29;20507;-78
2023/09/06 04:28:43;;;;;;;11.23;10.02;;;;;;;17.47;100.00;102078.75;4843722;29;20041;-77
2023/09/06 04:31:17;;;;;;;14.68;11.50;;;;;;;17.44;100.00;102076.97;4856459;29;20075;-78
2023/09/06 04:33:47;;;;;;;12.55;10.82;;;;;;;17.43;100.00;102071.66;4832944;29;20053;-78
2023/09/06 04:36:25;;;;;;;18.90;11.00;;;;;;;17.42;100.00;102078.78;4820469;29;20068;-79
2023/09/06 04:38:58;;;;;;;11.80;10.60;;;;;;;17.39;100.00;102077.91;4867162;29;20037;-78
2023/09/06 04:41:28;;;;;;;11.25;10.23;;;;;;;17.38;100.00;102073.50;4836992;29;20049;-78
2023/09/06 04:44:02;;;;;;;13.05;11.23;;;;;;;17.36;100.00;102076.16;4844709;29;20060;-76
2023/09/06 04:46:31;;;;;;;12.63;10.07;;;;;;;17.33;100.00;102079.72;4872492;29;20414;-77
2023/09/06 04:49:00;;;;;;;12.02;10.10;;;;;;;17.32;100.00;102069.06;4847604;29;20045;-78
2023/09/06 04:51:28;;;;;;;18.45;10.32;;;;;;;17.30;100.00;102068.19;4830308;29;20049;-77
2023/09/06 04:53:59;;;;;;;12.57;10.45;;;;;;;17.28;100.00;102075.31;4853003;29;20060;-77
2023/09/06 04:56:32;;;;;;;11.95;10.63;;;;;;;17.25;100.00;102070.88;4836538;29;20083;-77
2023/09/06 04:59:00;;;;;;;10.50;9.50;;;;;;;17.25;100.00;102083.31;4843777;29;20057;-78
2023/09/06 05:01:29;;;;;;;13.63;9.68;;;;;;;17.23;100.00;102069.13;4857523;29;20069;-78
2023/09/06 05:03:58;;;;;;;12.43;9.95;;;;;;;17.22;100.00;102073.56;4859033;29;20053;-78
2023/09/06 05:06:27;;;;;;;12.43;10.45;;;;;;;17.22;100.00;102070.00;4782962;29;20060;-79
2023/09/06 05:08:55;;;;;;;11.48;9.93;;;;;;;17.21;100.00;102076.22;4833945;29;20049;-78
2023/09/06 05:11:25;;;;;;;9.88;8.88;;;;;;;17.20;100.00;102066.47;4816796;29;20073;-79
2023/09/06 05:13:52;;;;;;;14.40;10.25;;;;;;;17.20;100.00;102074.44;4851841;29;20431;-78
2023/09/06 05:16:22;;;;;;;11.20;9.32;;;;;;;17.19;100.00;102070.03;4869623;29;20414;-78
2023/09/06 05:18:50;;;;;;;10.68;9.68;;;;;;;17.20;100.00;102072.69;4843910;29;20055;-78
2023/09/06 05:21:22;;;;;;;9.95;9.02;;;;;;;17.22;100.00;102083.31;4839783;29;20049;-78
2023/09/06 05:23:50;;;;;;;10.02;8.65;;;;;;;17.22;100.00;102078.91;4795847;29;20045;-78
2023/09/06 05:26:17;;;;;;;9.32;8.30;;;;;;;17.22;100.00;102076.22;4846069;29;20045;-79
2023/09/06 05:28:48;;;;;;;9.02;8.13;;;;;;;17.23;100.00;102083.31;4869407;29;20056;-79
2023/09/06 05:31:18;;;;;;;13.10;8.52;;;;;;;17.24;100.00;102082.44;4837841;29;20053;-78
2023/09/06 05:33:47;;;;;;;10.85;8.85;;;;;;;17.24;100.00;102079.78;4852411;29;20033;-78
2023/09/06 05:36:17;;;;;;;11.65;8.20;;;;;;;17.26;100.00;102082.44;4843274;29;20049;-78
2023/09/06 05:38:44;;;;;;;9.20;8.30;;;;;;;17.28;100.00;102080.66;4821092;29;20052;-78
2023/09/06 05:41:13;;;;;;;12.20;8.82;;;;;;;17.27;100.00;102079.72;4842421;29;20063;-79
2023/09/06 05:43:46;;;;;;;10.45;8.38;;;;;;;17.28;100.00;102084.19;4840267;29;20057;-79
2023/09/06 05:46:15;;;;;;;10.75;8.63;;;;;;;17.31;100.00;102080.59;4865215;29;20128;-78
2023/09/06 05:48:45;;;;;;;11.90;8.23;;;;;;;17.33;100.00;102081.47;4858694;29;20045;-78
2023/09/06 05:51:13;;;;;;;10.52;7.75;;;;;;;17.36;100.00;102080.59;4847972;29;20061;-79
2023/09/06 05:53:40;;;;;;;12.68;7.88;;;;;;;17.40;100.00;102080.56;4789234;29;20438;-79
2023/09/06 05:56:08;;;;;;;9.60;8.15;;;;;;;17.42;100.00;102086.75;4853443;29;20041;-78
2023/09/06 05:58:38;;;;;;;10.73;7.80;;;;;;;17.45;100.00;102089.44;4828182;29;20401;-78
2023/09/06 06:01:08;;;;;;;10.23;7.57;;;;;;;17.50;100.00;102098.28;4814990;29;20050;-78
2023/09/06 06:03:37;;;;;;;11.33;8.17;;;;;;;17.54;100.00;102093.78;4851203;29;20055;-78
2023/09/06 06:06:13;;;;;;;8.10;7.32;;;;;;;17.57;100.00;102099.13;4833813;29;20097;-78
2023/09/06 06:08:42;;;;;;;8.48;7.13;;;;;;;17.61;100.00;102092.88;4844547;29;20061;-78
2023/09/06 06:11:09;;;;;;;9.40;6.65;;;;;;;17.66;100.00;102092.88;4804228;29;20072;-79
2023/09/06 06:13:37;;;;;;;8.23;7.43;;;;;;;17.70;100.00;102111.47;4798485;29;20065;-79
2023/09/06 06:16:08;;;;;;;12.43;6.82;;;;;;;17.75;100.00;102103.47;4847599;29;20054;-79
2023/09/06 06:18:35;;;;;;;9.85;6.90;;;;;;;17.79;100.00;102110.53;4827233;29;20069;-79
2023/09/06 06:21:03;;;;;;;8.05;6.68;;;;;;;17.84;100.00;102105.16;4834040;29;20042;-78
2023/09/06 06:23:31;;;;;;;7.05;6.35;;;;;;;17.89;100.00;102122.06;4856338;29;20058;-78
2023/09/06 06:25:59;;;;;;;9.52;6.63;;;;;;;17.95;100.00;102122.00;4769570;29;20057;-79
2023/09/06 06:28:27;;;;;;;10.95;6.78;;;;;;;18.03;100.00;102127.28;4839801;29;20058;-78
2023/09/06 06:30:55;;;;;;;7.90;6.82;;;;;;;18.08;100.00;102126.34;4813665;29;20065;-78
2023/09/06 06:33:24;;;;;;;10.48;6.35;;;;;;;18.19;100.00;102120.06;4848738;29;20050;-77
2023/09/06 06:35:51;;;;;;;8.13;5.90;;;;;;;18.38;100.00;102116.31;4822276;29;20046;-78
2023/09/06 06:38:19;;;;;;;8.60;5.45;;;;;;;18.68;100.00;102124.94;4836259;29;20401;-77
2023/09/06 06:40:46;;;;;;;9.98;6.25;;;;;;;18.98;100.00;102126.44;4805984;29;20049;-76
2023/09/06 06:43:16;;;;;;;6.35;5.78;;;;;;;19.16;100.00;102121.78;4825460;29;20046;-77
2023/09/06 06:45:53;;;;;;;5.85;5.25;;;;;;;19.40;100.00;102117.91;4825463;29;20049;-77
2023/09/06 06:48:21;;;;;;;5.55;4.88;;;;;;;19.90;100.00;102118.97;4849095;29;20058;-77
2023/09/06 06:50:49;;;;;;;8.35;5.20;;;;;;;20.63;100.00;102121.34;4860777;29;20046;-76
2023/09/06 06:53:16;;;;;;;5.85;4.70;;;;;;;21.34;100.00;102127.97;4826466;29;20417;-77
2023/09/06 06:55:44;;;;;;;5.53;4.70;;;;;;;21.76;100.00;102131.53;4800111;29;20074;-79
2023/09/06 06:58:11;;;;;;;8.98;4.97;;;;;;;21.95;100.00;102129.28;4863962;29;20072;-79
2023/09/06 07:00:38;;;;;;;5.75;5.10;;;;;;;22.31;100.00;102129.34;4838847;29;20042;-79
2023/09/06 07:03:08;;;;;;;9.93;4.60;;;;;;;22.69;100.00;102135.50;4855695;29;20058;-79
2023/09/06 07:05:37;;;;;;;6.00;4.55;;;;;;;22.93;100.00;102133.03;4837961;29;20065;-79
2023/09/06 07:08:05;;;;;;;6.45;4.63;;;;;;;22.97;100.00;102135.63;4831096;29;20072;-79
2023/09/06 07:10:32;;;;;;;6.10;5.03;;;;;;;22.91;100.00;102138.50;4828638;29;20053;-79
2023/09/06 07:13:00;;;;;;;7.38;4.95;;;;;;;22.82;100.00;102136.06;4809760;29;20057;-79
2023/09/06 07:15:27;;;;;;;6.47;5.07;;;;;;;22.69;100.00;102140.00;4832183;29;20507;-78
2023/09/06 07:17:55;;;;;;;7.45;4.80;;;;;;;22.57;100.00;102150.16;4864377;29;20057;-79
2023/09/06 07:20:23;;;;;;;5.28;4.75;;;;;;;22.49;100.00;102143.19;4838284;29;20054;-79
2023/09/06 07:22:50;;;;;;;7.25;4.57;;;;;;;22.42;100.00;102138.91;4839521;29;20497;-79
2023/09/06 07:25:18;;;;;;;5.05;4.55;;;;;;;22.39;100.00;102148.81;4846939;29;20427;-78
2023/09/06 07:27:45;;;;;;;5.18;4.47;;;;;;;22.42;100.00;102142.50;4817512;29;20056;-80
2023/09/06 07:30:13;;;;;;;7.03;4.78;;;;;;;22.48;100.00;102142.31;4831328;29;20065;-78
2023/09/06 07:32:40;;;;;;;6.35;4.72;;;;;;;22.60;100.00;102141.13;4805038;29;20089;-79
2023/09/06 07:35:08;;;;;;;5.97;4.45;;;;;;;22.73;100.00;102141.69;4858775;29;20064;-79
2023/09/06 07:37:35;;;;;;;6.47;4.30;;;;;;;22.81;100.00;102155.78;4821482;29;20060;-79
2023/09/06 07:40:03;;;;;;;6.05;4.18;;;;;;;22.86;100.00;102147.59;4854349;29;20066;-79
2023/09/06 07:42:31;;;;;;;6.63;3.92;;;;;;;22.92;100.00;102150.97;4812612;29;20500;-78
2023/09/06 07:44:58;;;;;;;6.47;4.07;;;;;;;23.05;100.00;102151.56;4835664;29;20054;-79
2023/09/06 07:47:26;;;;;;;4.03;3.30;;;;;;;23.18;100.00;102146.72;4849567;29;20069;-79
2023/09/06 07:49:54;;;;;;;3.80;3.50;;;;;;;23.30;100.00;102154.41;4864175;29;20078;-79
2023/09/06 07:52:21;;;;;;;3.70;3.30;;;;;;;23.39;100.00;102144.31;4853526;29;20046;-79
2023/09/06 07:54:49;;;;;;;4.82;3.42;;;;;;;23.46;100.00;102148.56;4821891;29;20057;-79
2023/09/06 07:57:17;;;;;;;3.67;3.15;;;;;;;23.59;100.00;102154.47;4814641;29;20495;-79
2023/09/06 07:59:44;;;;;;;5.32;3.58;;;;;;;23.72;100.00;102150.47;4855316;29;20511;-79
2023/09/06 08:02:12;;;;;;;4.75;3.17;;;;;;;23.85;100.00;102153.69;4869090;29;20052;-80
2023/09/06 08:04:40;;;;;;;4.90;3.75;;;;;;;23.99;100.00;102154.13;4846523;29;20075;-79
2023/09/06 08:07:08;;;;;;;6.45;3.90;;;;;;;24.12;100.00;102152.81;4857735;29;20434;-79
2023/09/06 08:09:35;;;;;;;6.80;4.20;;;;;;;24.30;100.00;102158.50;4832745;29;20063;-79
2023/09/06 08:12:05;;;;;;;5.00;4.07;;;;;;;24.43;100.00;102157.16;4863772;29;20064;-79
2023/09/06 08:14:33;;;;;;;5.38;4.75;;;;;;;24.59;100.00;102153.94;4830461;29;20061;-80
2023/09/06 08:17:00;;;;;;;5.72;4.18;;;;;;;24.77;100.00;102153.31;4878346;29;20045;-79
2023/09/06 08:19:28;;;;;;;4.80;4.32;;;;;;;25.01;100.00;102156.94;4863823;29;20048;-78
2023/09/06 08:21:55;;;;;;;4.25;3.83;;;;;;;25.27;100.00;102166.78;4845167;29;20060;-79
2023/09/06 08:24:24;;;;;;;4.78;4.28;;;;;;;25.48;100.00;102164.19;4862237;29;20064;-80
2023/09/06 08:26:52;;;;;;;4.57;4.18;;;;;;;25.67;100.00;102167.94;4876769;29;20061;-79
2023/09/06 08:29:19;;;;;;;4.63;3.97;;;;;;;25.89;100.00;102158.97;4795137;29;20072;-79
2023/09/06 08:31:47;;;;;;;4.35;3.70;;;;;;;26.12;100.00;102159.88;4842668;29;20049;-79
2023/09/06 08:34:14;;;;;;;4.35;3.95;;;;;;;26.35;100.00;102154.41;4848281;29;20044;-78
2023/09/06 08:36:41;;;;;;;4.30;3.90;;;;;;;26.48;100.00;102159.28;4826209;29;20550;-79
2023/09/06 08:39:09;;;;;;;4.28;3.80;;;;;;;26.63;100.00;102155.94;4849498;29;20041;-79
2023/09/06 08:41:37;;;;;;;6.85;4.55;;;;;;;26.79;100.00;102153.44;4862387;29;20060;-78
2023/09/06 08:44:09;;;;;;;4.55;3.92;;;;;;;26.95;100.00;102156.34;4858891;29;20438;-79
2023/09/06 08:46:41;;;;;;;3.85;3.40;;;;;;;27.12;100.00;102156.44;4830447;29;20056;-78
2023/09/06 08:49:11;;;;;;;3.40;3.10;;;;;;;27.16;100.00;102157.19;4851509;29;20056;-78
2023/09/06 08:51:39;;;;;;;3.67;2.88;;;;;;;27.11;100.00;102154.69;4857831;29;20049;-78
2023/09/06 08:54:07;;;;;;;7.20;2.90;;;;;;;27.10;100.00;102158.34;4869598;29;20057;-78
2023/09/06 08:56:35;;;;;;;3.40;3.10;;;;;;;27.09;99.98;102158.41;4846059;29;20061;-78
2023/09/06 08:59:02;;;;;;;3.53;2.80;;;;;;;27.11;98.90;102162.81;4858129;29;20060;-78
2023/09/06 09:01:31;;;;;;;4.35;2.38;;;;;;;27.13;98.05;102162.75;4809897;29;20564;-79
2023/09/06 09:04:00;;;;;;;3.97;2.88;;;;;;;27.12;97.91;102172.66;4851903;29;20064;-79
2023/09/06 09:06:29;;;;;;;2.80;2.60;;;;;;;27.00;96.01;102162.44;4861325;29;20049;-79
2023/09/06 09:09:18;;;;;;;2.92;2.72;;;;;;;26.88;96.15;102162.97;4862431;29;20075;-79
2023/09/06 09:11:51;;;;;;;3.00;2.63;;;;;;;26.83;96.58;102171.28;4838753;29;20060;-79
2023/09/06 09:14:23;;;;;;;2.50;2.30;;;;;;;26.83;96.67;102171.28;4856851;29;20063;-78
2023/09/06 09:16:58;;;;;;;2.67;2.33;;;;;;;26.82;96.42;102169.53;4804655;29;20050;-79
2023/09/06 09:19:26;;;;;;;3.65;2.50;;;;;;;26.79;95.71;102165.13;4855856;29;20060;-79
2023/09/06 09:21:57;;;;;;;4.82;2.40;;;;;;;26.79;95.94;102175.94;4842683;29;20075;-79
2023/09/06 09:24:28;;;;;;;;;;;;;;;26.83;96.32;102168.59;4836404;29;20071;-80
2023/09/06 09:26:56;;;;;;;3.05;1.95;;;;;;;26.78;96.91;102168.78;4874808;29;19938;-79
2023/09/06 09:29:25;;;;;;;5.25;2.17;;;;;;;26.81;96.19;102162.38;4866392;29;20057;-79
2023/09/06 09:32:00;;;;;;;1.60;1.50;;;;;;;26.83;94.43;102166.75;4827677;29;20048;-79
2023/09/06 09:34:28;;;;;;;2.60;1.77;;;;;;;26.80;93.58;102164.19;4860063;29;20061;-79
2023/09/06 09:36:56;;;;;;;2.63;1.58;;;;;;;26.79;92.85;102158.88;4829168;29;20061;-79
2023/09/06 09:39:28;;;;;;;4.07;1.75;;;;;;;26.76;92.17;102165.25;4857016;29;20085;-79
2023/09/06 09:41:59;;;;;;;2.08;1.83;;;;;;;26.71;92.21;102161.91;4858979;29;20061;-79
2023/09/06 09:44:27;;;;;;;2.28;1.80;;;;;;;26.70;91.42;102159.25;4845183;29;20068;-79
2023/09/06 09:46:57;;;;;;;3.22;1.80;;;;;;;26.70;90.24;102160.13;4805704;29;20060;-79
2023/09/06 09:49:26;;;;;;;3.72;1.63;;;;;;;26.72;89.86;102152.84;4838766;29;20061;-79
2023/09/06 09:51:54;;;;;;;1.65;1.55;;;;;;;26.76;90.34;102162.56;4857471;29;20064;-80
2023/09/06 09:54:23;;;;;;;1.80;1.70;;;;;;;26.80;90.04;102155.19;4834603;29;20053;-80
2023/09/06 09:57:04;;;;;;;4.72;1.35;;;;;;;26.84;90.35;102157.72;4883765;29;20049;-80
2023/09/06 09:59:33;;;;;;;3.92;1.48;;;;;;;26.87;89.84;102158.53;4837120;29;20502;-80
2023/09/06 10:02:04;;;;;;;3.35;2.05;;;;;;;26.88;89.59;102157.56;4861126;29;20049;-80
2023/09/06 10:04:36;;;;;;;;;;;;;;;26.89;90.48;102152.09;4848707;29;20053;-79
2023/09/06 10:07:08;;;;;;;3.78;1.45;;;;;;;26.95;91.20;102148.22;4853533;29;19927;-80
2023/09/06 10:09:39;;;;;;;1.40;1.30;;;;;;;27.01;90.22;102148.84;4843413;29;20049;-79
2023/09/06 10:12:08;;;;;;;1.88;1.30;;;;;;;27.09;89.89;102142.16;4871405;29;20052;-79
2023/09/06 10:14:39;;;;;;;3.40;1.42;;;;;;;27.16;90.86;102143.66;4841790;29;20056;-79
2023/09/06 10:17:08;;;;;;;2.58;1.50;;;;;;;27.19;89.99;102143.53;4851518;29;20053;-80
2023/09/06 10:19:37;;;;;;;3.55;1.70;;;;;;;27.25;89.24;102143.25;4828565;29;20057;-80
2023/09/06 10:22:21;;;;;;;2.90;1.92;;;;;;;27.32;89.32;102143.88;4870229;29;20069;-79
2023/09/06 10:24:52;;;;;;;6.40;1.90;;;;;;;27.39;88.95;102139.91;4844141;29;20061;-79
2023/09/06 10:27:20;;;;;;;3.72;1.65;;;;;;;27.42;87.79;102132.50;4873590;29;20059;-79
2023/09/06 10:29:52;;;;;;;2.03;1.52;;;;;;;27.45;87.58;102136.91;4842580;29;20033;-80
2023/09/06 10:32:41;;;;;;;1.80;1.70;;;;;;;27.51;87.93;102133.91;4859939;29;20057;-80
2023/09/06 10:35:24;;;;;;;2.80;1.40;;;;;;;27.58;88.31;102131.78;4813876;29;20056;-80
2023/09/06 10:38:05;;;;;;;3.08;1.58;;;;;;;27.66;87.27;102134.13;4870721;29;20080;-81
2023/09/06 10:40:48;;;;;;;1.55;1.23;;;;;;;27.71;86.80;102134.75;4867442;29;20045;-79
2023/09/06 10:43:20;;;;;;;5.35;1.40;;;;;;;27.74;85.42;102138.22;4846186;29;20429;-80
2023/09/06 10:46:18;;;;;;;1.88;1.67;;;;;;;27.78;84.76;102133.53;4855603;29;20075;-80
2023/09/06 10:49:14;;;;;;;2.42;1.35;;;;;;;27.86;85.94;102134.00;4849503;29;20076;-81
2023/09/06 10:51:59;;;;;;;2.75;1.67;;;;;;;27.88;85.38;102137.50;4846444;29;20486;-81
2023/09/06 10:54:40;;;;;;;3.25;1.60;;;;;;;27.87;85.02;102133.06;4845810;29;20053;-81
2023/09/06 10:57:10;;;;;;;6.47;1.92;;;;;;;27.88;85.47;102137.50;4865180;29;20064;-80
2023/09/06 10:59:58;;;;;;;3.47;2.10;;;;;;;27.94;84.81;102129.13;4859091;29;20060;-80
2023/09/06 11:02:26;;;;;;;3.42;2.15;;;;;;;27.98;84.89;102129.88;4837993;29;20062;-80
2023/09/06 11:05:09;;;;;;;6.47;1.73;;;;;;;28.03;85.13;102129.63;4849245;29;20418;-79
2023/09/06 11:07:45;;;;;;;3.05;2.03;;;;;;;28.08;84.98;102128.44;4848990;29;20061;-78
2023/09/06 11:10:24;;;;;;;6.63;2.00;;;;;;;28.15;85.42;102131.72;4840351;29;20056;-80
2023/09/06 11:12:54;;;;;;;2.25;2.05;;;;;;;28.23;86.65;102121.38;4863705;29;20064;-80
2023/09/06 11:15:25;;;;;;;1.92;1.60;;;;;;;28.33;87.34;102121.75;4853147;29;20054;-80
2023/09/06 11:17:59;;;;;;;2.28;1.73;;;;;;;28.42;85.38;102115.00;4866737;29;20057;-79
2023/09/06 11:20:27;;;;;;;2.80;1.70;;;;;;;28.45;84.72;102113.00;4800818;29;20072;-79
2023/09/06 11:22:58;;;;;;;2.10;1.58;;;;;;;28.51;84.51;102115.38;4875815;29;20060;-79
2023/09/06 11:25:27;;;;;;;1.75;1.65;;;;;;;28.54;83.13;102108.94;4846254;29;20053;-80